Time;durP1;ratioP1;P1;durP2;ratioP2;P2;SDS_P1;SDS_P2;PMS_P1;PMS_P2;Temp;Humidity;BMP_temperature;BMP_pressure;BME280_temperature;BME280_humidity;BME280_pressure;Samples;Min_cycle;Max_cycle;Signal;HPM_P1;HPM_P2
2023/07/23 00:01:26;;;;;;;;;;;22.60;51.50;;;;;;4980237;28;19934;-70
2023/07/23 00:03:53;;;;;;;;;;;22.50;51.60;;;;;;4984326;28;19933;-69
2023/07/23 00:06:19;;;;;;;;;;;22.50;51.80;;;;;;4982214;28;19929;-71
2023/07/23 00:08:47;;;;;;;;;;;22.50;51.80;;;;;;4980489;28;19941;-72
2023/07/23 00:11:14;;;;;;;;;;;22.50;51.80;;;;;;4985860;28;19937;-70
2023/07/23 00:13:40;;;;;;;;;;;22.40;51.80;;;;;;4983613;28;19938;-69
2023/07/23 00:16:07;;;;;;;;;;;22.40;51.90;;;;;;4978850;28;19930;-70
2023/07/23 00:18:33;;;;;;;;;;;22.40;52.00;;;;;;4979256;28;20599;-69
2023/07/23 00:21:00;;;;;;;;;;;22.30;52.00;;;;;;4983629;28;19944;-71
2023/07/23 00:23:26;;;;;;;;;;;22.30;52.00;;;;;;4979713;28;19940;-72
2023/07/23 00:25:55;;;;;;;;;;;22.30;52.10;;;;;;4985232;28;19940;-71
2023/07/23 00:28:22;;;;;;;;;;;22.30;52.20;;;;;;4985840;28;20021;-72
2023/07/23 00:30:49;;;;;;;;;;;22.20;52.20;;;;;;4983613;28;19930;-71
2023/07/23 00:33:16;;;;;;;;;;;22.20;52.30;;;;;;4977261;28;19938;-71
2023/07/23 00:35:42;;;;;;;;;;;22.20;52.30;;;;;;4981688;28;19933;-73
2023/07/23 00:38:09;;;;;;;;;;;22.10;52.40;;;;;;4981523;28;19946;-70
2023/07/23 00:40:35;;;;;;;;;;;22.10;52.50;;;;;;4981141;28;19933;-71
2023/07/23 00:43:03;;;;;;;;;;;22.10;52.60;;;;;;4980373;28;19941;-72
2023/07/23 00:45:30;;;;;;;;;;;22.10;52.70;;;;;;4979213;28;19937;-71
2023/07/23 00:47:56;;;;;;;;;;;22.10;52.80;;;;;;4978386;28;20048;-72
2023/07/23 00:50:23;;;;;;;;;;;22.00;52.70;;;;;;4982522;28;20379;-71
2023/07/23 00:52:49;;;;;;;;;;;22.00;52.80;;;;;;4982782;28;21013;-71
2023/07/23 00:55:16;;;;;;;;;;;22.00;52.90;;;;;;4981834;28;19930;-71
2023/07/23 00:57:44;;;;;;;;;;;22.00;52.90;;;;;;4982433;28;20323;-71
2023/07/23 01:00:12;;;;;;;;;;;21.90;52.90;;;;;;4985514;28;19930;-70
2023/07/23 01:02:39;;;;;;;;;;;21.90;53.00;;;;;;4983064;28;21821;-71
2023/07/23 01:05:07;;;;;;;;;;;21.90;53.10;;;;;;4980593;28;20346;-71
2023/07/23 01:07:34;;;;;;;;;;;21.90;53.20;;;;;;4982995;28;19934;-73
2023/07/23 01:10:03;;;;;;;;;;;21.90;53.30;;;;;;4985980;28;19964;-71
2023/07/23 01:12:30;;;;;;;;;;;21.80;53.30;;;;;;4976395;28;19929;-71
2023/07/23 01:14:57;;;;;;;;;;;21.80;53.30;;;;;;4983440;28;20574;-71
2023/07/23 01:17:25;;;;;;;;;;;21.80;53.40;;;;;;4980628;28;19941;-71
2023/07/23 01:20:03;;;;;;;;;;;21.80;53.50;;;;;;4980705;28;19937;-72
2023/07/23 01:22:30;;;;;;;;;;;21.70;53.60;;;;;;4979762;28;19934;-71
2023/07/23 01:24:57;;;;;;;;;;;21.70;53.60;;;;;;4977979;28;19941;-71
2023/07/23 01:27:24;;;;;;;;;;;21.70;53.60;;;;;;4981046;28;20390;-70
2023/07/23 01:29:50;;;;;;;;;;;21.70;53.60;;;;;;4981033;28;19941;-72
2023/07/23 01:32:17;;;;;;;;;;;21.70;53.80;;;;;;4978606;28;20017;-71
2023/07/23 01:34:43;;;;;;;;;;;21.60;53.90;;;;;;4981077;28;19941;-71
2023/07/23 01:37:10;;;;;;;;;;;21.60;53.90;;;;;;4979415;28;20681;-72
2023/07/23 01:39:38;;;;;;;;;;;21.60;54.00;;;;;;4981702;28;19940;-71
2023/07/23 01:42:05;;;;;;;;;;;21.50;54.00;;;;;;4975767;28;19933;-71
2023/07/23 01:44:31;;;;;;;;;;;21.60;54.10;;;;;;4975595;28;19929;-71
2023/07/23 01:46:58;;;;;;;;;;;21.50;54.10;;;;;;4979896;28;20465;-71
2023/07/23 01:49:24;;;;;;;;;;;21.50;54.20;;;;;;4976283;28;20362;-71
2023/07/23 01:51:51;;;;;;;;;;;21.50;54.30;;;;;;4979540;28;19933;-70
2023/07/23 01:54:17;;;;;;;;;;;21.50;54.50;;;;;;4981478;28;19938;-71
2023/07/23 01:56:45;;;;;;;;;;;21.50;54.50;;;;;;4979898;28;19934;-71
2023/07/23 01:59:12;;;;;;;;;;;21.40;54.50;;;;;;4980077;28;19930;-71
2023/07/23 02:01:38;;;;;;;;;;;21.40;54.50;;;;;;4981064;28;19930;-71
2023/07/23 02:04:05;;;;;;;;;;;21.30;54.60;;;;;;4981594;28;19944;-71
2023/07/23 02:06:31;;;;;;;;;;;21.40;54.70;;;;;;4980604;28;19934;-70
2023/07/23 02:08:58;;;;;;;;;;;21.30;54.80;;;;;;4982691;28;21168;-71
2023/07/23 02:11:25;;;;;;;;;;;21.30;54.80;;;;;;4983718;28;19941;-71
2023/07/23 02:13:52;;;;;;;;;;;21.30;54.90;;;;;;4981008;28;20483;-71
2023/07/23 02:16:19;;;;;;;;;;;21.30;55.00;;;;;;4982053;28;19936;-72
2023/07/23 02:18:46;;;;;;;;;;;21.30;55.00;;;;;;4978939;28;19984;-71
2023/07/23 02:21:12;;;;;;;;;;;21.20;55.10;;;;;;4983818;28;20230;-71
2023/07/23 02:23:39;;;;;;;;;;;21.20;55.10;;;;;;4984126;28;20439;-70
2023/07/23 02:26:05;;;;;;;;;;;21.20;55.20;;;;;;4979979;28;19930;-71
2023/07/23 02:28:32;;;;;;;;;;;21.20;55.30;;;;;;4979489;28;19929;-71
2023/07/23 02:31:00;;;;;;;;;;;21.20;55.30;;;;;;4981106;28;19926;-70
2023/07/23 02:33:27;;;;;;;;;;;21.10;55.30;;;;;;4980609;28;20016;-70
2023/07/23 02:35:53;;;;;;;;;;;21.10;55.30;;;;;;4979868;28;20305;-71
2023/07/23 02:38:20;;;;;;;;;;;21.10;55.50;;;;;;4983293;28;19937;-70
2023/07/23 02:40:46;;;;;;;;;;;21.00;55.50;;;;;;4980489;28;19984;-71
2023/07/23 02:43:13;;;;;;;;;;;21.00;55.50;;;;;;4975114;28;19937;-71
2023/07/23 02:45:39;;;;;;;;;;;21.00;55.70;;;;;;4976347;28;19932;-71
2023/07/23 02:48:08;;;;;;;;;;;21.00;55.70;;;;;;4983282;28;19936;-73
2023/07/23 02:50:34;;;;;;;;;;;21.00;55.80;;;;;;4983317;28;20328;-71
2023/07/23 02:53:01;;;;;;;;;;;21.00;55.90;;;;;;4982013;28;19929;-71
2023/07/23 02:55:27;;;;;;;;;;;20.90;55.90;;;;;;4982108;28;19929;-71
2023/07/23 02:57:54;;;;;;;;;;;20.90;55.90;;;;;;4979820;28;20426;-71
2023/07/23 03:00:21;;;;;;;;;;;20.90;56.00;;;;;;4981176;28;19983;-71
2023/07/23 03:02:48;;;;;;;;;;;20.90;56.00;;;;;;4976808;28;20023;-70
2023/07/23 03:05:16;;;;;;;;;;;20.90;56.10;;;;;;4981078;28;19937;-71
2023/07/23 03:07:42;;;;;;;;;;;20.90;56.10;;;;;;4978759;28;19934;-70
2023/07/23 03:10:09;;;;;;;;;;;20.90;56.20;;;;;;4983441;28;19937;-71
2023/07/23 03:12:36;;;;;;;;;;;20.90;56.20;;;;;;4983466;28;19965;-71
2023/07/23 03:15:02;;;;;;;;;;;20.80;56.20;;;;;;4986226;28;19934;-72
2023/07/23 03:17:29;;;;;;;;;;;20.80;56.30;;;;;;4976871;28;19984;-71
2023/07/23 03:19:55;;;;;;;;;;;20.80;56.40;;;;;;4984434;28;19930;-70
2023/07/23 03:22:24;;;;;;;;;;;20.80;56.40;;;;;;4986055;28;19936;-71
2023/07/23 03:24:50;;;;;;;;;;;20.80;56.40;;;;;;4985485;28;19933;-72
2023/07/23 03:27:17;;;;;;;;;;;20.80;56.40;;;;;;4988208;28;19925;-71
2023/07/23 03:29:43;;;;;;;;;;;20.80;56.50;;;;;;4983839;28;19984;-71
2023/07/23 03:32:10;;;;;;;;;;;20.80;56.50;;;;;;4979939;28;19929;-71
2023/07/23 03:34:37;;;;;;;;;;;20.70;56.50;;;;;;4979444;28;19934;-72
2023/07/23 03:37:03;;;;;;;;;;;20.70;56.60;;;;;;4986137;28;19930;-70
2023/07/23 03:39:31;;;;;;;;;;;20.70;56.70;;;;;;4982994;28;19941;-72
2023/07/23 03:41:58;;;;;;;;;;;20.70;56.60;;;;;;4983442;28;20396;-71
2023/07/23 03:44:24;;;;;;;;;;;20.70;56.70;;;;;;4978434;28;20469;-70
2023/07/23 03:47:01;;;;;;;;;;;20.60;56.60;;;;;;4986089;28;20415;-71
2023/07/23 03:49:28;;;;;;;;;;;20.60;56.70;;;;;;4984265;28;20467;-71
2023/07/23 03:51:54;;;;;;;;;;;20.60;56.70;;;;;;4983602;28;19937;-71
2023/07/23 03:54:21;;;;;;;;;;;20.60;56.80;;;;;;4977690;28;19996;-71
2023/07/23 03:56:49;;;;;;;;;;;20.60;56.80;;;;;;4985388;28;19992;-71
2023/07/23 03:59:15;;;;;;;;;;;20.50;56.80;;;;;;4980370;28;19930;-71
2023/07/23 04:01:42;;;;;;;;;;;20.50;56.80;;;;;;4981667;28;19994;-71
2023/07/23 04:04:08;;;;;;;;;;;20.50;56.80;;;;;;4984443;28;19930;-71
2023/07/23 04:06:35;;;;;;;;;;;20.50;56.80;;;;;;4983105;28;20223;-71
2023/07/23 04:09:02;;;;;;;;;;;20.50;56.80;;;;;;4982882;28;19937;-71
2023/07/23 04:11:28;;;;;;;;;;;20.50;56.80;;;;;;4983433;28;19933;-71
2023/07/23 04:13:56;;;;;;;;;;;20.50;56.80;;;;;;4984017;28;19942;-70
2023/07/23 04:16:23;;;;;;;;;;;20.50;56.80;;;;;;4984891;28;19933;-70
2023/07/23 04:18:50;;;;;;;;;;;20.50;56.90;;;;;;4978284;28;19934;-70
2023/07/23 04:21:18;;;;;;;;;;;20.40;56.90;;;;;;4984963;28;19943;-72
2023/07/23 04:23:46;;;;;;;;;;;20.50;56.90;;;;;;4984732;28;19965;-72
2023/07/23 04:26:12;;;;;;;;;;;20.40;56.80;;;;;;4984365;28;20006;-72
2023/07/23 04:28:39;;;;;;;;;;;20.40;56.90;;;;;;4975691;28;19937;-71
2023/07/23 04:31:07;;;;;;;;;;;20.40;56.90;;;;;;4981776;28;20012;-71
2023/07/23 04:33:33;;;;;;;;;;;20.40;56.90;;;;;;4979953;28;19934;-71
2023/07/23 04:36:00;;;;;;;;;;;20.40;56.90;;;;;;4985405;28;19937;-73
2023/07/23 04:38:26;;;;;;;;;;;20.30;56.90;;;;;;4983165;28;19930;-71
2023/07/23 04:40:53;;;;;;;;;;;20.40;56.90;;;;;;4978088;28;19934;-70
2023/07/23 04:43:19;;;;;;;;;;;20.40;57.00;;;;;;4979910;28;19934;-72
2023/07/23 04:45:46;;;;;;;;;;;20.40;57.00;;;;;;4982587;28;19987;-71
2023/07/23 04:48:16;;;;;;;;;;;20.30;57.00;;;;;;4982291;28;19938;-70
2023/07/23 04:50:42;;;;;;;;;;;20.30;57.00;;;;;;4979296;28;19940;-71
2023/07/23 04:53:09;;;;;;;;;;;20.30;57.00;;;;;;4985587;28;20482;-71
2023/07/23 04:55:35;;;;;;;;;;;20.30;57.10;;;;;;4978971;28;20492;-70
2023/07/23 04:58:02;;;;;;;;;;;20.30;57.10;;;;;;4975940;28;20440;-70
2023/07/23 05:00:29;;;;;;;;;;;20.30;57.10;;;;;;4980052;28;20132;-71
2023/07/23 05:02:56;;;;;;;;;;;20.30;57.10;;;;;;4977658;28;19984;-72
2023/07/23 05:05:24;;;;;;;;;;;20.30;57.10;;;;;;4984039;28;20003;-71
2023/07/23 05:07:50;;;;;;;;;;;20.20;57.10;;;;;;4985308;28;20246;-71
2023/07/23 05:10:17;;;;;;;;;;;20.30;57.10;;;;;;4982822;28;20420;-70
2023/07/23 05:12:43;;;;;;;;;;;20.30;57.10;;;;;;4986420;28;19937;-71
2023/07/23 05:15:10;;;;;;;;;;;20.30;57.10;;;;;;4976177;28;19984;-71
2023/07/23 05:17:37;;;;;;;;;;;20.30;57.10;;;;;;4985508;28;20027;-70
2023/07/23 05:20:05;;;;;;;;;;;20.20;57.10;;;;;;4975133;28;21164;-71
2023/07/23 05:22:34;;;;;;;;;;;20.30;57.10;;;;;;4982899;28;19937;-71
2023/07/23 05:25:00;;;;;;;;;;;20.30;57.10;;;;;;4980857;28;19933;-69
2023/07/23 05:27:27;;;;;;;;;;;20.30;57.00;;;;;;4977557;28;19976;-71
2023/07/23 05:29:54;;;;;;;;;;;20.30;57.10;;;;;;4979111;28;19941;-72
2023/07/23 05:32:20;;;;;;;;;;;20.30;57.00;;;;;;4980239;28;20630;-71
2023/07/23 05:34:47;;;;;;;;;;;20.30;57.00;;;;;;4979348;28;19958;-70
2023/07/23 05:37:13;;;;;;;;;;;20.30;57.00;;;;;;4983154;28;19929;-70
2023/07/23 05:39:41;;;;;;;;;;;20.30;57.00;;;;;;4984519;28;19929;-71
2023/07/23 05:42:08;;;;;;;;;;;20.30;56.90;;;;;;4982890;28;20392;-70
2023/07/23 05:44:34;;;;;;;;;;;20.30;56.90;;;;;;4984088;28;19930;-70
2023/07/23 05:47:01;;;;;;;;;;;20.30;56.90;;;;;;4982775;28;19937;-70
2023/07/23 05:49:29;;;;;;;;;;;20.30;56.90;;;;;;4980596;28;19936;-71
2023/07/23 05:51:57;;;;;;;;;;;20.30;56.90;;;;;;4982933;28;19945;-71
2023/07/23 05:54:24;;;;;;;;;;;20.30;56.90;;;;;;4982483;28;19929;-70
2023/07/23 05:56:52;;;;;;;;;;;20.30;56.90;;;;;;4981717;28;20006;-70
2023/07/23 05:59:18;;;;;;;;;;;20.30;57.00;;;;;;4981149;28;19930;-70
2023/07/23 06:01:45;;;;;;;;;;;20.30;56.90;;;;;;4978402;28;19937;-71
2023/07/23 06:04:12;;;;;;;;;;;20.30;57.00;;;;;;4981890;28;19929;-70
2023/07/23 06:06:38;;;;;;;;;;;20.30;57.00;;;;;;4981022;28;19930;-69
2023/07/23 06:09:05;;;;;;;;;;;20.30;57.00;;;;;;4979681;28;19938;-70
2023/07/23 06:11:31;;;;;;;;;;;20.30;57.00;;;;;;4980903;28;19952;-70
2023/07/23 06:14:00;;;;;;;;;;;20.30;57.00;;;;;;4981066;28;19941;-71
2023/07/23 06:16:26;;;;;;;;;;;20.30;57.00;;;;;;4982340;28;20024;-71
2023/07/23 06:18:53;;;;;;;;;;;20.30;57.10;;;;;;4979481;28;19930;-70
2023/07/23 06:21:19;;;;;;;;;;;20.30;57.20;;;;;;4984305;28;19979;-70
2023/07/23 06:23:46;;;;;;;;;;;20.30;57.10;;;;;;4979566;28;19937;-72
2023/07/23 06:26:12;;;;;;;;;;;20.30;57.10;;;;;;4982244;28;19926;-71
2023/07/23 06:28:39;;;;;;;;;;;20.40;57.10;;;;;;4981674;28;19934;-70
2023/07/23 06:31:07;;;;;;;;;;;20.40;57.10;;;;;;4981250;28;19976;-70
2023/07/23 06:33:33;;;;;;;;;;;20.40;57.00;;;;;;4980335;28;19933;-70
2023/07/23 06:36:01;;;;;;;;;;;20.40;57.00;;;;;;4982287;28;19934;-72
2023/07/23 06:38:27;;;;;;;;;;;20.40;57.00;;;;;;4981756;28;19943;-71
2023/07/23 06:40:56;;;;;;;;;;;20.40;57.00;;;;;;4980917;28;19941;-71
2023/07/23 06:43:22;;;;;;;;;;;20.40;57.00;;;;;;4980965;28;20359;-70
2023/07/23 06:45:50;;;;;;;;;;;20.40;56.90;;;;;;4978999;28;19934;-71
2023/07/23 06:48:18;;;;;;;;;;;20.40;56.90;;;;;;4980258;28;20211;-70
2023/07/23 06:50:45;;;;;;;;;;;20.50;56.90;;;;;;4978571;28;19930;-70
2023/07/23 06:53:12;;;;;;;;;;;20.40;56.80;;;;;;4984436;28;20359;-72
2023/07/23 06:55:53;;;;;;;;;;;20.50;56.80;;;;;;4982249;28;19973;-69
2023/07/23 06:58:20;;;;;;;;;;;20.50;56.80;;;;;;4979603;28;19933;-71
2023/07/23 07:00:46;;;;;;;;;;;20.40;56.80;;;;;;4979687;28;19953;-71
2023/07/23 07:03:13;;;;;;;;;;;20.50;57.10;;;;;;4980394;28;20398;-70
2023/07/23 07:05:41;;;;;;;;;;;20.50;56.70;;;;;;4979138;28;19945;-71
2023/07/23 07:08:07;;;;;;;;;;;20.60;56.90;;;;;;4979672;28;19929;-71
2023/07/23 07:10:34;;;;;;;;;;;20.60;56.90;;;;;;4979632;28;19933;-71
2023/07/23 07:13:00;;;;;;;;;;;20.60;56.90;;;;;;4977611;28;19926;-70
2023/07/23 07:15:27;;;;;;;;;;;20.70;56.90;;;;;;4980944;28;20408;-71
2023/07/23 07:17:54;;;;;;;;;;;20.70;56.90;;;;;;4978968;28;20759;-71
2023/07/23 07:20:20;;;;;;;;;;;20.70;56.80;;;;;;4983356;28;19941;-71
2023/07/23 07:22:48;;;;;;;;;;;20.70;56.90;;;;;;4973519;28;19985;-71
2023/07/23 07:25:15;;;;;;;;;;;20.70;56.90;;;;;;4975430;28;19933;-70
2023/07/23 07:27:41;;;;;;;;;;;20.70;56.90;;;;;;4981885;28;19941;-70
2023/07/23 07:30:08;;;;;;;;;;;20.80;56.90;;;;;;4978662;28;20672;-70
2023/07/23 07:32:35;;;;;;;;;;;20.80;56.80;;;;;;4977525;28;19930;-72
2023/07/23 07:35:02;;;;;;;;;;;20.80;56.80;;;;;;4981874;28;19977;-71
2023/07/23 07:37:28;;;;;;;;;;;20.80;56.70;;;;;;4981094;28;19941;-71
2023/07/23 07:39:56;;;;;;;;;;;20.80;56.80;;;;;;4981479;28;19941;-70
2023/07/23 07:42:23;;;;;;;;;;;20.80;56.70;;;;;;4984087;28;19932;-70
2023/07/23 07:44:50;;;;;;;;;;;20.80;56.70;;;;;;4982713;28;19929;-71
2023/07/23 07:47:16;;;;;;;;;;;20.80;56.70;;;;;;4982445;28;19925;-71
2023/07/23 07:49:43;;;;;;;;;;;20.90;56.70;;;;;;4974088;28;19942;-70
2023/07/23 07:52:11;;;;;;;;;;;20.90;56.70;;;;;;4968618;28;19934;-71
2023/07/23 07:54:37;;;;;;;;;;;20.90;56.70;;;;;;4978770;28;19930;-70
2023/07/23 07:57:05;;;;;;;;;;;20.90;56.80;;;;;;4984916;28;20489;-71
2023/07/23 07:59:32;;;;;;;;;;;20.90;56.60;;;;;;4985615;28;19930;-71
2023/07/23 08:01:59;;;;;;;;;;;21.00;56.70;;;;;;4982019;28;19930;-71
2023/07/23 08:04:27;;;;;;;;;;;20.90;56.70;;;;;;4989004;28;20656;-71
2023/07/23 08:06:54;;;;;;;;;;;21.00;56.70;;;;;;4985846;28;19929;-70
2023/07/23 08:09:22;;;;;;;;;;;21.00;56.80;;;;;;4981209;28;19930;-70
2023/07/23 08:11:49;;;;;;;;;;;21.00;56.80;;;;;;4985519;28;19949;-71
2023/07/23 08:14:17;;;;;;;;;;;21.00;56.80;;;;;;4984618;28;19930;-71
2023/07/23 08:16:44;;;;;;;;;;;21.00;56.70;;;;;;4984601;28;19929;-71
2023/07/23 08:19:10;;;;;;;;;;;21.10;56.80;;;;;;4987061;28;19940;-70
2023/07/23 08:21:37;;;;;;;;;;;21.10;56.70;;;;;;4975788;28;19934;-71
2023/07/23 08:24:04;;;;;;;;;;;21.10;56.80;;;;;;4977132;28;19930;-71
2023/07/23 08:26:33;;;;;;;;;;;21.10;56.70;;;;;;4982383;28;20488;-71
2023/07/23 08:29:03;;;;;;;;;;;21.10;56.80;;;;;;4980569;28;19929;-70
2023/07/23 08:31:31;;;;;;;;;;;21.20;56.70;;;;;;4976563;28;20307;-71
2023/07/23 08:33:59;;;;;;;;;;;21.20;56.70;;;;;;4980016;28;19930;-71
2023/07/23 08:36:26;;;;;;;;;;;21.20;56.80;;;;;;4981704;28;19930;-71
2023/07/23 08:38:53;;;;;;;;;;;21.20;56.80;;;;;;4984133;28;20024;-70
2023/07/23 08:41:23;;;;;;;;;;;21.20;56.80;;;;;;4979134;28;19930;-72
2023/07/23 08:44:01;;;;;;;;;;;21.20;56.70;;;;;;4983845;28;20037;-71
2023/07/23 08:46:27;;;;;;;;;;;21.30;56.80;;;;;;4980130;28;20352;-71
2023/07/23 08:49:03;;;;;;;;;;;21.30;56.70;;;;;;4982513;28;20025;-70
2023/07/23 08:51:32;;;;;;;;;;;21.30;56.60;;;;;;4984009;28;19940;-71
2023/07/23 08:53:58;;;;;;;;;;;21.40;56.80;;;;;;4983019;28;19949;-71
2023/07/23 08:56:25;;;;;;;;;;;21.40;56.70;;;;;;4983886;28;19941;-72
2023/07/23 08:58:53;;;;;;;;;;;21.40;56.70;;;;;;4982480;28;19930;-70
2023/07/23 09:01:19;;;;;;;;;;;21.40;56.70;;;;;;4983315;28;19933;-72
2023/07/23 09:03:46;;;;;;;;;;;21.40;56.70;;;;;;4978802;28;19980;-71
2023/07/23 09:06:14;;;;;;;;;;;21.50;56.80;;;;;;4981002;28;19945;-71
2023/07/23 09:08:41;;;;;;;;;;;21.50;56.80;;;;;;4983690;28;19934;-72
2023/07/23 09:11:10;;;;;;;;;;;21.50;56.80;;;;;;4979750;28;19934;-72
2023/07/23 09:13:37;;;;;;;;;;;21.50;56.70;;;;;;4983148;28;19981;-71
2023/07/23 09:16:04;;;;;;;;;;;21.60;56.70;;;;;;4989278;28;19983;-72
2023/07/23 09:18:31;;;;;;;;;;;21.60;56.60;;;;;;4975337;28;19934;-71
2023/07/23 09:20:58;;;;;;;;;;;21.60;56.50;;;;;;4977631;28;19930;-71
2023/07/23 09:23:27;;;;;;;;;;;21.70;56.60;;;;;;4983477;28;20418;-72
2023/07/23 09:25:53;;;;;;;;;;;21.70;56.50;;;;;;4979726;28;19932;-72
2023/07/23 09:28:22;;;;;;;;;;;21.70;56.60;;;;;;4975938;28;19933;-71
2023/07/23 09:30:54;;;;;;;;;;;21.80;56.50;;;;;;4979733;28;19952;-72
2023/07/23 09:33:20;;;;;;;;;;;21.90;56.70;;;;;;4977647;28;19937;-71
2023/07/23 09:35:47;;;;;;;;;;;22.00;56.50;;;;;;4984120;28;19930;-71
2023/07/23 09:38:13;;;;;;;;;;;22.00;56.20;;;;;;4983282;28;19951;-71
2023/07/23 09:40:42;;;;;;;;;;;22.10;56.00;;;;;;4983704;28;19929;-72
2023/07/23 09:43:09;;;;;;;;;;;22.20;55.90;;;;;;4984546;28;19936;-71
2023/07/23 09:45:36;;;;;;;;;;;22.30;55.60;;;;;;4982387;28;20394;-71
2023/07/23 09:48:03;;;;;;;;;;;22.30;55.40;;;;;;4982312;28;19929;-72
2023/07/23 09:50:30;;;;;;;;;;;22.40;55.30;;;;;;4982087;28;20028;-72
2023/07/23 09:52:57;;;;;;;;;;;22.40;55.20;;;;;;4979787;28;19937;-72
2023/07/23 09:55:24;;;;;;;;;;;22.50;55.10;;;;;;4976746;28;19940;-75
2023/07/23 09:57:53;;;;;;;;;;;22.60;54.80;;;;;;4979873;28;19934;-75
2023/07/23 10:00:20;;;;;;;;;;;22.60;54.60;;;;;;4979511;28;21450;-75
2023/07/23 10:02:48;;;;;;;;;;;22.60;54.50;;;;;;4978870;28;19937;-75
2023/07/23 10:05:15;;;;;;;;;;;22.70;54.40;;;;;;4982428;28;19930;-75
2023/07/23 10:07:45;;;;;;;;;;;22.80;54.30;;;;;;4980010;28;20437;-76
2023/07/23 10:10:13;;;;;;;;;;;22.80;54.10;;;;;;4979709;28;20321;-75
2023/07/23 10:12:39;;;;;;;;;;;22.90;54.10;;;;;;4982984;28;20907;-77
2023/07/23 10:15:08;;;;;;;;;;;23.00;54.20;;;;;;4974279;28;19926;-75
2023/07/23 10:17:38;;;;;;;;;;;23.00;54.00;;;;;;4978403;28;19930;-74
2023/07/23 10:20:05;;;;;;;;;;;23.10;53.90;;;;;;4977445;28;19930;-75
2023/07/23 10:22:33;;;;;;;;;;;23.20;53.80;;;;;;4979106;28;19940;-77
2023/07/23 10:24:59;;;;;;;;;;;23.30;53.60;;;;;;4979553;28;19938;-75
2023/07/23 10:27:26;;;;;;;;;;;23.30;53.50;;;;;;4979334;28;19937;-76
2023/07/23 10:30:13;;;;;;;;;;;23.40;53.30;;;;;;4981939;28;19933;-75
2023/07/23 10:32:41;;;;;;;;;;;23.50;53.00;;;;;;4978030;28;20072;-75
2023/07/23 10:35:08;;;;;;;;;;;23.50;52.80;;;;;;4978048;28;19937;-76
2023/07/23 10:37:34;;;;;;;;;;;23.50;52.70;;;;;;4979901;28;19938;-76
2023/07/23 10:40:03;;;;;;;;;;;23.60;52.60;;;;;;4978618;28;19937;-76
2023/07/23 10:42:36;;;;;;;;;;;23.60;52.30;;;;;;4976817;28;19934;-75
2023/07/23 10:45:23;;;;;;;;;;;23.60;52.20;;;;;;4973699;28;19938;-76
2023/07/23 10:47:52;;;;;;;;;;;23.60;52.20;;;;;;4997762;28;19940;-75
2023/07/23 10:50:19;;;;;;;;;;;23.80;52.40;;;;;;4998342;28;19937;-76
2023/07/23 10:52:45;;;;;;;;;;;23.80;52.10;;;;;;5000245;28;19933;-75
2023/07/23 10:55:12;;;;;;;;;;;23.90;52.00;;;;;;4999576;28;19940;-74
2023/07/23 10:57:39;;;;;;;;;;;24.00;51.90;;;;;;4997709;28;19929;-74
2023/07/23 11:00:18;;;;;;;;;;;24.00;51.60;;;;;;4996950;28;19936;-75
2023/07/23 11:02:46;;;;;;;;;;;24.10;51.40;;;;;;4996891;28;19929;-76
2023/07/23 11:05:14;;;;;;;;;;;24.20;51.30;;;;;;4991416;28;19936;-75
2023/07/23 11:07:41;;;;;;;;;;;24.20;51.20;;;;;;4998510;28;19929;-76
2023/07/23 11:10:20;;;;;;;;;;;24.20;51.30;;;;;;4999928;28;19929;-75
2023/07/23 11:12:47;;;;;;;;;;;24.20;51.20;;;;;;4998980;28;19929;-76
2023/07/23 11:15:14;;;;;;;;;;;24.30;51.30;;;;;;4998416;28;20033;-75
2023/07/23 11:17:41;;;;;;;;;;;24.30;51.40;;;;;;4979790;28;19992;-76
2023/07/23 11:20:08;;;;;;;;;;;24.30;51.40;;;;;;4977873;28;19994;-77
2023/07/23 11:22:41;;;;;;;;;;;24.30;50.90;;;;;;4979206;28;20352;-77
2023/07/23 11:25:14;;;;;;;;;;;24.30;50.90;;;;;;4979438;28;19930;-76
2023/07/23 11:27:41;;;;;;;;;;;24.30;50.70;;;;;;4978754;28;20388;-76
2023/07/23 11:30:08;;;;;;;;;;;24.30;50.70;;;;;;4979787;28;20040;-76
2023/07/23 11:32:35;;;;;;;;;;;24.40;50.80;;;;;;4981393;28;20423;-75
2023/07/23 11:35:01;;;;;;;;;;;24.40;50.80;;;;;;4982429;28;19945;-74
2023/07/23 11:37:28;;;;;;;;;;;24.40;50.80;;;;;;4980759;28;19930;-74
2023/07/23 11:39:56;;;;;;;;;;;24.40;50.80;;;;;;4984581;28;19933;-75
2023/07/23 11:42:23;;;;;;;;;;;24.40;50.80;;;;;;4983446;28;19930;-76
2023/07/23 11:45:02;;;;;;;;;;;24.50;50.90;;;;;;4980987;28;20062;-75
2023/07/23 11:47:29;;;;;;;;;;;24.50;50.80;;;;;;4982730;28;19930;-75
2023/07/23 11:49:55;;;;;;;;;;;24.50;50.80;;;;;;4982550;28;19929;-78
2023/07/23 11:52:23;;;;;;;;;;;24.60;51.40;;;;;;4980976;28;19938;-76
2023/07/23 11:54:49;;;;;;;;;;;24.50;50.70;;;;;;4985343;28;19941;-75
2023/07/23 11:57:18;;;;;;;;;;;24.60;50.40;;;;;;4982177;28;19937;-75
2023/07/23 11:59:44;;;;;;;;;;;24.60;50.10;;;;;;4982961;28;19929;-77
2023/07/23 12:02:11;;;;;;;;;;;24.70;50.20;;;;;;4981879;28;19941;-76
2023/07/23 12:04:38;;;;;;;;;;;24.70;50.00;;;;;;4983239;28;19929;-77
2023/07/23 12:07:05;;;;;;;;;;;24.70;49.60;;;;;;4987255;28;20008;-76
2023/07/23 12:09:34;;;;;;;;;;;24.70;49.50;;;;;;4981021;28;19937;-76
2023/07/23 12:12:00;;;;;;;;;;;24.70;49.30;;;;;;4980792;28;20656;-75
2023/07/23 12:14:28;;;;;;;;;;;24.70;49.50;;;;;;4983970;28;19930;-75
2023/07/23 12:16:56;;;;;;;;;;;24.80;49.60;;;;;;4981063;28;19930;-77
2023/07/23 12:19:23;;;;;;;;;;;24.80;49.50;;;;;;4982611;28;19937;-76
2023/07/23 12:21:52;;;;;;;;;;;24.80;49.50;;;;;;4982634;28;20327;-75
2023/07/23 12:24:20;;;;;;;;;;;24.90;49.40;;;;;;4982067;28;20573;-75
2023/07/23 12:26:48;;;;;;;;;;;24.90;49.30;;;;;;4978016;28;20399;-74
2023/07/23 12:29:14;;;;;;;;;;;24.90;49.30;;;;;;4984278;28;19938;-74
2023/07/23 12:31:43;;;;;;;;;;;24.90;49.20;;;;;;4979518;28;19930;-76
2023/07/23 12:34:10;;;;;;;;;;;24.90;48.90;;;;;;4983658;28;20525;-75
2023/07/23 12:36:36;;;;;;;;;;;24.90;49.10;;;;;;4982293;28;20229;-75
2023/07/23 12:39:03;;;;;;;;;;;24.90;49.00;;;;;;4983747;28;19925;-75
2023/07/23 12:41:30;;;;;;;;;;;25.00;49.00;;;;;;4980299;28;20009;-76
2023/07/23 12:43:56;;;;;;;;;;;25.00;49.10;;;;;;4981762;28;19936;-76
2023/07/23 12:46:23;;;;;;;;;;;25.00;48.80;;;;;;4981072;28;19933;-78
2023/07/23 12:48:51;;;;;;;;;;;25.10;48.70;;;;;;4982563;28;19937;-75
2023/07/23 12:51:17;;;;;;;;;;;25.10;48.40;;;;;;4983090;28;19925;-77
2023/07/23 12:53:44;;;;;;;;;;;25.10;48.00;;;;;;4981409;28;19937;-77
2023/07/23 12:56:10;;;;;;;;;;;25.20;47.10;;;;;;4983033;28;19938;-76
2023/07/23 12:58:37;;;;;;;;;;;25.20;46.90;;;;;;4979042;28;19937;-78
2023/07/23 13:01:04;;;;;;;;;;;25.20;46.70;;;;;;4982855;28;20010;-78
2023/07/23 13:03:33;;;;;;;;;;;25.30;47.50;;;;;;4982838;28;19929;-77
2023/07/23 13:06:00;;;;;;;;;;;25.30;46.80;;;;;;4981988;28;19938;-77
2023/07/23 13:08:27;;;;;;;;;;;25.40;46.70;;;;;;4984597;28;19938;-78
2023/07/23 13:10:54;;;;;;;;;;;25.40;46.70;;;;;;4984505;28;19930;-77
2023/07/23 13:13:20;;;;;;;;;;;25.40;46.70;;;;;;4983731;28;19984;-77
2023/07/23 13:15:47;;;;;;;;;;;25.50;45.90;;;;;;4982223;28;19933;-77
2023/07/23 13:18:13;;;;;;;;;;;25.60;45.40;;;;;;4981359;28;19937;-78
2023/07/23 13:20:40;;;;;;;;;;;25.70;45.40;;;;;;4982478;28;19937;-77
2023/07/23 13:23:08;;;;;;;;;;;25.80;45.40;;;;;;4982849;28;19940;-77
2023/07/23 13:25:34;;;;;;;;;;;25.80;45.20;;;;;;4979441;28;19930;-76
2023/07/23 13:28:01;;;;;;;;;;;25.90;45.40;;;;;;4984212;28;20744;-75
2023/07/23 13:30:27;;;;;;;;;;;25.90;45.10;;;;;;4984392;28;19932;-75
2023/07/23 13:32:54;;;;;;;;;;;25.90;45.10;;;;;;4979164;28;20490;-79
2023/07/23 13:35:20;;;;;;;;;;;26.00;45.20;;;;;;4977677;28;19934;-79
2023/07/23 13:37:47;;;;;;;;;;;26.00;45.20;;;;;;4982373;28;19938;-78
2023/07/23 13:40:15;;;;;;;;;;;26.00;45.30;;;;;;4981068;28;19929;-75
2023/07/23 13:42:41;;;;;;;;;;;26.00;44.90;;;;;;4982723;28;19940;-75
2023/07/23 13:45:08;;;;;;;;;;;26.10;45.10;;;;;;4983125;28;19930;-74
2023/07/23 13:47:35;;;;;;;;;;;26.10;45.30;;;;;;4984960;28;19930;-75
2023/07/23 13:50:01;;;;;;;;;;;26.20;45.00;;;;;;4982858;28;19926;-75
2023/07/23 13:52:28;;;;;;;;;;;26.20;45.10;;;;;;4983502;28;19951;-75
2023/07/23 13:54:54;;;;;;;;;;;26.20;45.20;;;;;;4976477;28;19937;-76
2023/07/23 13:57:22;;;;;;;;;;;26.20;44.90;;;;;;4979351;28;19930;-75
2023/07/23 13:59:49;;;;;;;;;;;26.30;44.90;;;;;;4984121;28;19937;-75
2023/07/23 14:02:17;;;;;;;;;;;26.30;45.00;;;;;;4984481;28;19934;-75
2023/07/23 14:04:43;;;;;;;;;;;26.30;45.10;;;;;;4983001;28;20387;-75
2023/07/23 14:07:10;;;;;;;;;;;26.30;45.00;;;;;;4982192;28;19976;-74
2023/07/23 14:09:36;;;;;;;;;;;26.30;44.60;;;;;;4983893;28;19937;-75
2023/07/23 14:12:03;;;;;;;;;;;26.30;44.40;;;;;;4983892;28;19941;-76
2023/07/23 14:14:31;;;;;;;;;;;26.30;44.60;;;;;;4983817;28;19936;-74
2023/07/23 14:16:57;;;;;;;;;;;26.40;44.90;;;;;;4986567;28;19940;-75